Terminal Aerodrome Forecast
Issued by NWS Amarillo, TX

Home | Current Version | Previous Version | Text Only | Print | Product List | Glossary On
Versions: 1 2 3 4 5 6 7 8 9 10 11 12 13 14 15 16 17 18 19 20 21 22 23 24 25 26
000
FTUS44 KAMA 232340
TAFAMA
TAF
KAMA 232340Z 2400/2424 18018G28KT P6SM FEW300
     FM241500 22020G30KT P6SM FEW300=

USA.gov is the U.S. government's official web portal to all federal, state and local government web resources and services.